createdAt,value
2022-09-06T00:03:34.135Z,0.00
2022-09-06T00:12:33.736Z,0.00
2022-09-06T00:27:31.871Z,0.00
2022-09-06T00:44:16.334Z,0.00
2022-09-06T00:45:16.257Z,0.00
2022-09-06T00:46:16.272Z,0.00
2022-09-06T00:47:16.106Z,0.00
2022-09-06T00:48:16.032Z,0.00
2022-09-06T00:49:15.957Z,0.00
2022-09-06T00:50:15.923Z,0.00
2022-09-06T00:51:15.807Z,0.00
2022-09-06T00:52:15.731Z,0.00
2022-09-06T00:53:15.693Z,0.00
2022-09-06T00:54:15.582Z,0.00
2022-09-06T00:56:15.433Z,0.00
2022-09-06T00:57:15.360Z,0.00
2022-09-06T00:58:15.283Z,0.00
2022-09-06T00:59:15.208Z,0.00
2022-09-06T01:00:15.132Z,0.00
2022-09-06T01:01:15.406Z,0.00
2022-09-06T01:02:15.315Z,0.00
2022-09-06T01:03:14.944Z,0.00
2022-09-06T01:04:15.034Z,0.00
2022-09-06T01:05:14.797Z,0.00
2022-09-06T01:06:14.722Z,0.00
2022-09-06T01:07:14.611Z,0.00
2022-09-06T01:08:14.770Z,0.00
2022-09-06T01:09:14.462Z,0.00
2022-09-06T01:10:14.420Z,0.00
2022-09-06T01:11:14.312Z,0.00
2022-09-06T01:12:14.271Z,0.00
2022-09-06T01:13:14.164Z,0.00
2022-09-06T01:14:14.127Z,0.00
2022-09-06T01:15:14.051Z,0.00
2022-09-06T01:16:14.153Z,0.00
2022-09-06T01:17:13.868Z,0.00
2022-09-06T01:18:13.791Z,0.00
2022-09-06T01:19:13.752Z,0.00
2022-09-06T01:20:13.640Z,0.00
2022-09-06T01:21:13.565Z,0.00
2022-09-06T01:22:13.693Z,0.00
2022-09-06T01:24:13.381Z,0.00
2022-09-06T01:26:13.191Z,0.00
2022-09-06T01:27:13.119Z,0.00
2022-09-06T01:28:13.079Z,0.00
2022-09-06T01:29:12.969Z,0.00
2022-09-06T01:31:12.965Z,0.00
2022-09-06T01:32:12.782Z,0.00
2022-09-06T01:33:12.671Z,0.00
2022-09-06T01:35:12.757Z,0.00
2022-09-06T01:36:12.444Z,0.00
2022-09-06T01:37:13.014Z,0.00
2022-09-06T01:38:12.936Z,0.00
2022-09-06T01:39:12.259Z,0.00
2022-09-06T01:40:12.212Z,0.00
2022-09-06T01:41:12.474Z,0.00
2022-09-06T01:42:12.635Z,0.00
2022-09-06T01:44:12.032Z,0.00
2022-09-06T01:45:12.009Z,0.00
2022-09-06T01:46:11.848Z,0.00
2022-09-06T01:47:11.710Z,0.00
2022-09-06T01:48:11.782Z,0.00
2022-09-06T01:51:11.357Z,0.00
2022-09-06T01:52:11.285Z,0.00
2022-09-06T01:54:11.303Z,0.00
2022-09-06T01:55:11.060Z,0.00
2022-09-06T01:56:10.981Z,0.00
2022-09-06T01:57:11.314Z,0.00
2022-09-06T01:58:10.833Z,0.00
2022-09-06T01:59:10.760Z,0.00
2022-09-06T02:00:10.649Z,0.00
2022-09-06T02:01:10.816Z,0.00
2022-09-06T02:04:11.097Z,0.00
2022-09-06T02:06:10.239Z,0.00
2022-09-06T02:08:10.093Z,0.00
2022-09-06T02:09:10.012Z,0.00
2022-09-06T02:10:10.248Z,0.00
2022-09-06T02:11:09.878Z,0.00
2022-09-06T02:12:09.801Z,0.00
2022-09-06T02:13:09.982Z,0.00
2022-09-06T02:14:09.846Z,0.00
2022-09-06T02:16:09.487Z,0.00
2022-09-06T02:17:09.482Z,0.00
2022-09-06T02:18:09.950Z,0.00
2022-09-06T02:20:09.392Z,0.00
2022-09-06T02:22:09.038Z,0.00
2022-09-06T02:23:08.973Z,0.00
2022-09-06T02:24:08.890Z,0.00
2022-09-06T02:25:09.424Z,0.00
2022-09-06T02:26:08.741Z,0.00
2022-09-06T02:27:08.667Z,0.00
2022-09-06T02:29:09.121Z,0.00
2022-09-06T02:30:08.647Z,0.00
2022-09-06T02:31:08.634Z,0.00
2022-09-06T02:32:08.295Z,0.00
2022-09-06T02:33:08.421Z,0.00
2022-09-06T02:34:08.148Z,0.00
2022-09-06T02:35:08.069Z,0.00
2022-09-06T02:36:07.998Z,0.00
2022-09-06T02:37:08.129Z,0.00
2022-09-06T02:38:08.050Z,0.00
2022-09-06T02:39:08.078Z,0.00
2022-09-06T02:40:07.989Z,0.00
2022-09-06T02:41:07.588Z,0.00
2022-09-06T02:42:07.515Z,0.00
2022-09-06T02:44:07.363Z,0.00
2022-09-06T02:45:07.299Z,0.00
2022-09-06T02:46:07.303Z,0.00
2022-09-06T02:47:07.145Z,0.00
2022-09-06T02:48:07.068Z,0.00
2022-09-06T02:49:06.995Z,0.00
2022-09-06T02:50:06.921Z,0.00
2022-09-06T02:51:06.852Z,0.00
2022-09-06T02:52:06.771Z,0.00
2022-09-06T02:53:06.699Z,0.00
2022-09-06T02:54:06.624Z,0.00
2022-09-06T02:55:06.552Z,0.00
2022-09-06T02:56:06.475Z,0.00
2022-09-06T02:57:06.401Z,0.00
2022-09-06T02:58:06.327Z,0.00
2022-09-06T02:59:06.269Z,0.00
2022-09-06T03:00:06.180Z,0.00
2022-09-06T03:01:06.171Z,0.00
2022-09-06T03:02:06.061Z,0.00
2022-09-06T03:03:05.993Z,0.00
2022-09-06T03:04:05.880Z,0.00
2022-09-06T03:05:05.809Z,0.00
2022-09-06T03:06:05.734Z,0.00
2022-09-06T03:07:05.659Z,0.00
2022-09-06T03:08:05.587Z,0.00
2022-09-06T03:09:05.512Z,0.00
2022-09-06T03:10:05.441Z,0.00
2022-09-06T03:11:05.366Z,0.00
2022-09-06T03:12:05.289Z,0.00
2022-09-06T03:13:05.216Z,0.00
2022-09-06T03:14:05.140Z,0.00
2022-09-06T03:15:05.068Z,0.00
2022-09-06T03:16:04.995Z,0.00
2022-09-06T03:17:04.993Z,0.00
2022-09-06T03:18:04.844Z,0.00
2022-09-06T03:19:04.774Z,0.00
2022-09-06T03:20:04.699Z,0.00
2022-09-06T03:21:04.625Z,0.00
2022-09-06T03:22:04.551Z,0.00
2022-09-06T03:23:04.477Z,0.00
2022-09-06T03:24:04.401Z,0.00
2022-09-06T03:25:04.329Z,0.00
2022-09-06T03:26:04.255Z,0.00
2022-09-06T03:27:04.181Z,0.00
2022-09-06T03:28:04.109Z,0.00
2022-09-06T03:29:04.032Z,0.00
2022-09-06T03:30:04.058Z,0.00
2022-09-06T03:31:04.147Z,0.00
2022-09-06T03:32:03.808Z,0.00
2022-09-06T03:33:03.771Z,0.00
2022-09-06T03:34:04.698Z,0.00
2022-09-06T03:35:03.588Z,0.00
2022-09-06T03:36:03.512Z,0.00
2022-09-06T03:37:03.441Z,0.00
2022-09-06T03:38:03.465Z,0.00
2022-09-06T03:39:03.293Z,0.00
2022-09-06T03:40:03.379Z,0.00
2022-09-06T03:41:03.145Z,0.00
2022-09-06T03:42:03.076Z,0.00
2022-09-06T03:43:02.997Z,0.00
2022-09-06T03:44:02.921Z,0.00
2022-09-06T03:45:02.847Z,0.00
2022-09-06T03:46:02.912Z,0.00
2022-09-06T03:47:02.732Z,0.00
2022-09-06T03:48:02.623Z,0.00
2022-09-06T03:49:02.549Z,0.00
2022-09-06T03:50:02.624Z,0.00
2022-09-06T03:51:02.441Z,0.00
2022-09-06T03:52:02.327Z,0.00
2022-09-06T03:53:02.252Z,0.00
2022-09-06T03:54:02.177Z,0.00
2022-09-06T03:55:02.105Z,0.00
2022-09-06T03:56:02.032Z,0.00
2022-09-06T03:57:01.954Z,0.00
2022-09-06T03:58:01.878Z,0.00
2022-09-06T03:59:01.809Z,0.00
2022-09-06T04:00:01.730Z,0.00
2022-09-06T04:01:01.844Z,0.00
2022-09-06T04:02:01.676Z,0.00
2022-09-06T04:03:01.957Z,0.00
2022-09-06T04:04:01.481Z,0.00
2022-09-06T04:05:01.359Z,0.00
2022-09-06T04:08:01.132Z,0.00
2022-09-06T04:09:01.060Z,0.00
2022-09-06T04:10:01.017Z,0.00
2022-09-06T04:11:00.910Z,0.00
2022-09-06T04:12:00.833Z,0.00
2022-09-06T04:13:00.770Z,0.00
2022-09-06T04:14:00.888Z,0.00
2022-09-06T04:15:00.645Z,0.00
2022-09-06T04:16:00.568Z,0.00
2022-09-06T04:17:00.572Z,0.00
2022-09-06T04:18:00.416Z,0.00
2022-09-06T04:19:00.346Z,0.00
2022-09-06T04:20:00.280Z,0.00
2022-09-06T04:21:00.198Z,0.00
2022-09-06T04:22:00.087Z,0.00
2022-09-06T04:23:00.052Z,4.00
2022-09-06T04:24:00.136Z,4.00
2022-09-06T04:24:59.860Z,4.00
2022-09-06T04:25:59.817Z,0.00
2022-09-06T04:26:59.747Z,4.00
2022-09-06T04:27:59.668Z,4.00
2022-09-06T04:28:59.595Z,4.00
2022-09-06T04:29:59.718Z,4.00
2022-09-06T04:31:03.537Z,4.00
2022-09-06T04:31:59.406Z,8.00
2022-09-06T04:33:59.217Z,12.00
2022-09-06T04:34:59.108Z,12.00
2022-09-06T04:35:59.031Z,12.00
2022-09-06T04:36:58.995Z,16.00
2022-09-06T04:37:58.881Z,20.00
2022-09-06T04:38:58.855Z,24.00
2022-09-06T04:39:58.763Z,24.00
2022-09-06T04:40:58.655Z,32.00
2022-09-06T04:41:58.781Z,32.00
2022-09-06T04:42:58.506Z,36.00
2022-09-06T04:43:58.431Z,36.00
2022-09-06T04:44:58.355Z,40.00
2022-09-06T04:45:59.346Z,40.00
2022-09-06T04:46:58.205Z,44.00
2022-09-06T04:47:58.129Z,52.00
2022-09-06T04:48:58.071Z,56.00
2022-09-06T04:49:57.980Z,60.00
2022-09-06T04:50:57.906Z,68.00
2022-09-06T04:51:57.829Z,76.00
2022-09-06T04:52:57.753Z,84.00
2022-09-06T04:53:57.682Z,96.00
2022-09-06T04:54:57.605Z,108.00
2022-09-06T04:55:57.530Z,128.00
2022-09-06T04:56:57.454Z,136.00
2022-09-06T04:57:57.378Z,152.00
2022-09-06T04:58:57.304Z,160.00
2022-09-06T04:59:57.229Z,168.00
2022-09-06T05:00:57.212Z,184.00
2022-09-06T05:01:57.214Z,204.00
2022-09-06T05:02:57.003Z,216.00
2022-09-06T05:03:57.346Z,228.00
2022-09-06T05:04:57.005Z,236.00
2022-09-06T05:05:56.779Z,244.00
2022-09-06T05:06:56.737Z,252.00
2022-09-06T05:07:56.627Z,260.00
2022-09-06T05:08:56.551Z,268.00
2022-09-06T05:09:56.478Z,280.00
2022-09-06T05:10:56.401Z,292.00
2022-09-06T05:11:56.327Z,304.00
2022-09-06T05:12:56.255Z,320.00
2022-09-06T05:13:56.175Z,332.00
2022-09-06T05:14:56.107Z,344.00
2022-09-06T05:15:56.027Z,356.00
2022-09-06T05:16:56.068Z,368.00
2022-09-06T05:17:55.877Z,380.00
2022-09-06T05:18:55.807Z,392.00
2022-09-06T05:19:55.726Z,408.00
2022-09-06T05:20:55.651Z,420.00
2022-09-06T05:21:55.826Z,432.00
2022-09-06T05:22:55.500Z,448.00
2022-09-06T05:23:58.514Z,456.00
2022-09-06T05:24:55.351Z,472.00
2022-09-06T05:25:55.277Z,492.00
2022-09-06T05:26:55.200Z,504.00
2022-09-06T05:27:55.123Z,520.00
2022-09-06T05:28:55.091Z,540.00
2022-09-06T05:29:54.972Z,556.00
2022-09-06T05:30:54.897Z,580.00
2022-09-06T05:31:54.918Z,596.00
2022-09-06T05:32:54.749Z,616.00
2022-09-06T05:33:54.671Z,628.00
2022-09-06T05:34:54.595Z,644.00
2022-09-06T05:35:54.556Z,664.00
2022-09-06T05:41:30.147Z,816.00
2022-09-06T05:42:29.869Z,840.00
2022-09-06T05:43:29.794Z,860.00
2022-09-06T05:44:29.715Z,880.00
2022-09-06T05:45:29.682Z,896.00
2022-09-06T05:46:29.564Z,920.00
2022-09-06T05:47:29.494Z,952.00
2022-09-06T05:48:33.343Z,992.00
2022-09-06T05:49:29.339Z,1016.00
2022-09-06T05:50:29.267Z,1032.00
2022-09-06T05:51:29.188Z,1044.00
2022-09-06T05:52:29.112Z,1080.00
2022-09-06T05:53:29.037Z,1092.00
2022-09-06T05:54:28.959Z,1120.00
2022-09-06T05:55:28.888Z,1104.00
2022-09-06T05:56:28.809Z,1096.00
2022-09-06T05:57:28.739Z,1100.00
2022-09-06T05:58:28.812Z,1096.00
2022-09-06T05:59:28.584Z,1104.00
2022-09-06T06:00:28.570Z,1128.00
2022-09-06T06:01:28.499Z,1132.00
2022-09-06T06:02:28.414Z,1144.00
2022-09-06T06:04:28.342Z,1140.00
2022-09-06T06:06:28.259Z,1148.00
2022-09-06T06:07:27.978Z,1172.00
2022-09-06T06:08:28.025Z,1196.00
2022-09-06T06:09:28.066Z,1232.00
2022-09-06T06:10:27.752Z,1256.00
2022-09-06T06:11:27.694Z,1288.00
2022-09-06T06:13:27.562Z,1348.00
2022-09-06T06:14:27.585Z,1436.00
2022-09-06T06:15:28.122Z,1500.00
2022-09-06T06:16:27.456Z,1572.00
2022-09-06T06:17:27.459Z,1620.00
2022-09-06T06:18:27.280Z,1640.00
2022-09-06T06:19:27.116Z,1632.00
2022-09-06T06:20:28.249Z,1584.00
2022-09-06T06:21:26.962Z,1496.00
2022-09-06T06:22:26.888Z,1392.00
2022-09-06T06:23:26.777Z,1344.00
2022-09-06T06:24:26.739Z,1340.00
2022-09-06T06:25:26.660Z,1324.00
2022-09-06T06:26:26.590Z,1332.00
2022-09-06T06:27:26.508Z,1352.00
2022-09-06T06:28:26.517Z,1380.00
2022-09-06T06:29:26.326Z,1400.00
2022-09-06T06:30:26.286Z,1444.00
2022-09-06T06:31:26.274Z,1488.00
2022-09-06T06:32:26.103Z,1544.00
2022-09-06T06:33:26.265Z,1604.00
2022-09-06T06:34:25.993Z,1696.00
2022-09-06T06:35:26.128Z,1756.00
2022-09-06T06:36:26.602Z,1764.00
2022-09-06T06:37:26.475Z,1712.00
2022-09-06T06:40:25.541Z,1468.00
2022-09-06T06:41:25.673Z,1372.00
2022-09-06T06:43:26.445Z,1316.00
2022-09-06T06:46:25.304Z,1428.00
2022-09-06T06:49:25.186Z,1456.00
2022-09-06T06:50:25.202Z,1560.00
2022-09-06T06:51:24.693Z,1548.00
2022-09-06T06:52:24.955Z,1520.00
2022-09-06T06:53:24.582Z,1508.00
2022-09-06T06:54:24.503Z,1468.00
2022-09-06T06:55:24.834Z,1452.00
2022-09-06T06:56:24.362Z,1448.00
2022-09-06T06:58:25.219Z,1552.00
2022-09-06T06:59:24.741Z,1576.00
2022-09-06T07:02:23.977Z,1760.00
2022-09-06T07:03:23.839Z,1864.00
2022-09-06T07:04:23.762Z,1752.00
2022-09-06T07:07:30.892Z,1708.00
2022-09-06T07:09:23.614Z,1824.00
2022-09-06T07:10:38.802Z,1900.00
2022-09-06T07:11:24.844Z,1952.00
2022-09-06T07:12:23.136Z,1848.00
2022-09-06T07:13:23.244Z,2016.00
2022-09-06T07:15:30.493Z,2048.00
2022-09-06T07:16:30.474Z,2080.00
2022-09-06T07:17:30.346Z,2072.00
2022-09-06T07:18:30.272Z,2244.00
2022-09-06T07:20:30.241Z,2380.00
2022-09-06T07:21:37.650Z,2420.00
2022-09-06T07:22:30.044Z,2396.00
2022-09-06T07:24:29.835Z,2360.00
2022-09-06T07:25:29.758Z,2496.00
2022-09-06T07:26:29.986Z,2616.00
2022-09-06T07:28:29.541Z,2896.00
2022-09-06T07:29:29.466Z,2968.00
2022-09-06T07:30:29.392Z,2936.00
2022-09-06T07:32:29.248Z,2768.00
2022-09-06T07:33:29.333Z,2560.00
2022-09-06T07:34:29.100Z,2452.00
2022-09-06T07:35:29.029Z,2408.00
2022-09-06T07:36:28.956Z,2612.00
2022-09-06T07:37:28.884Z,2608.00
2022-09-06T07:38:28.847Z,2828.00
2022-09-06T07:39:28.892Z,3080.00
2022-09-06T07:40:28.666Z,3416.00
2022-09-06T07:41:28.594Z,3604.00
2022-09-06T07:43:31.169Z,3556.00
2022-09-06T07:44:28.408Z,3372.00
2022-09-06T07:45:28.337Z,2980.00
2022-09-06T07:46:28.654Z,2704.00
2022-09-06T07:48:28.223Z,2800.00
2022-09-06T07:49:31.651Z,2592.00
2022-09-06T07:51:27.869Z,1980.00
2022-09-06T07:53:31.105Z,1828.00
2022-09-06T07:54:31.374Z,1836.00
2022-09-06T07:55:27.580Z,1908.00
2022-09-06T07:56:27.509Z,2000.00
2022-09-06T07:57:27.435Z,2088.00
2022-09-06T07:58:27.360Z,2092.00
2022-09-06T07:59:27.292Z,2060.00
2022-09-06T08:01:34.731Z,2160.00
2022-09-06T08:02:34.715Z,2220.00
2022-09-06T08:03:34.728Z,2268.00
2022-09-06T08:04:34.707Z,2232.00
2022-09-06T08:09:34.180Z,2788.00
2022-09-06T08:10:34.510Z,2980.00
2022-09-06T08:14:04.658Z,2508.00
2022-09-06T08:15:04.630Z,2420.00
2022-09-06T08:22:04.134Z,3016.00
2022-09-06T08:34:05.486Z,1784.00
2022-09-06T08:35:05.448Z,1804.00
2022-09-06T08:36:05.578Z,1704.00
2022-09-06T08:38:05.836Z,1816.00
2022-09-06T08:49:23.666Z,2020.00
2022-09-06T09:10:42.290Z,1892.00
2022-09-06T09:11:09.209Z,1876.00
2022-09-06T09:12:08.934Z,1904.00
2022-09-06T09:16:08.789Z,1932.00
2022-09-06T09:17:08.615Z,1960.00
2022-09-06T09:19:08.434Z,1980.00
2022-09-06T09:20:08.499Z,1980.00
2022-09-06T09:21:08.538Z,2028.00
2022-09-06T09:22:08.221Z,1964.00
2022-09-06T09:23:08.150Z,1940.00
2022-09-06T09:24:08.128Z,1976.00
2022-09-06T09:25:08.006Z,1972.00
2022-09-06T09:26:07.935Z,1960.00
2022-09-06T09:27:07.860Z,1944.00
2022-09-06T09:28:07.792Z,1952.00
2022-09-06T09:29:07.722Z,1964.00
2022-09-06T09:31:07.672Z,1932.00
2022-09-06T09:32:07.620Z,1952.00
2022-09-06T09:33:07.433Z,1956.00
2022-09-06T09:34:07.561Z,2036.00
2022-09-06T09:35:07.493Z,2076.00
2022-09-06T09:36:07.273Z,2112.00
2022-09-06T09:38:11.038Z,2060.00
2022-09-06T09:39:07.005Z,1980.00
2022-09-06T09:40:07.017Z,1940.00
2022-09-06T09:41:06.874Z,1932.00
2022-09-06T09:42:06.791Z,1996.00
2022-09-06T09:43:06.719Z,2024.00
2022-09-06T09:44:06.650Z,1988.00
2022-09-06T09:45:06.576Z,1916.00
2022-09-06T09:46:06.564Z,2032.00
2022-09-06T09:47:06.435Z,2112.00
2022-09-06T09:48:06.364Z,2176.00
2022-09-06T09:49:06.292Z,2220.00
2022-09-06T09:50:06.220Z,2160.00
2022-09-06T09:51:06.149Z,2108.00
2022-09-06T09:52:06.079Z,2028.00
2022-09-06T09:53:06.007Z,2064.00
2022-09-06T09:54:05.943Z,2076.00
2022-09-06T09:55:05.868Z,2084.00
2022-09-06T09:56:05.800Z,2060.00
2022-09-06T09:57:08.993Z,2016.00
2022-09-06T09:58:05.655Z,1948.00
2022-09-06T09:59:05.581Z,1952.00
2022-09-06T10:00:05.515Z,1960.00
2022-09-06T10:03:05.364Z,1968.00
2022-09-06T10:05:05.193Z,1976.00
2022-09-06T10:07:08.351Z,1996.00
2022-09-06T10:08:04.976Z,1972.00
2022-09-06T10:09:04.907Z,1992.00
2022-09-06T10:11:04.968Z,2016.00
2022-09-06T10:12:05.200Z,2036.00
2022-09-06T10:13:04.623Z,2044.00
2022-09-06T10:14:04.553Z,2040.00
2022-09-06T10:15:06.943Z,2036.00
2022-09-06T10:16:04.643Z,2020.00
2022-09-06T10:17:04.304Z,2060.00
2022-09-06T10:18:04.231Z,2064.00
2022-09-06T10:19:04.162Z,2048.00
2022-09-06T10:20:04.090Z,2040.00
2022-09-06T10:21:04.021Z,2304.00
2022-09-06T10:22:03.948Z,2300.00
2022-09-06T10:23:03.878Z,2192.00
2022-09-06T10:25:03.757Z,2268.00
2022-09-06T10:26:03.663Z,2384.00
2022-09-06T10:27:06.213Z,2080.00
2022-09-06T10:28:11.608Z,2124.00
2022-09-06T10:29:03.453Z,2076.00
2022-09-06T10:30:03.379Z,2084.00
2022-09-06T10:31:03.374Z,2124.00
2022-09-06T10:32:03.239Z,2152.00
2022-09-06T10:37:02.919Z,3236.00
2022-09-06T10:38:02.816Z,3212.00
2022-09-06T10:39:04.082Z,4804.00
2022-09-06T10:41:25.539Z,2392.00
2022-09-06T10:45:24.946Z,2356.00
2022-09-06T10:53:21.944Z,9060.00
2022-09-06T10:54:22.000Z,14080.00
2022-09-06T10:55:22.013Z,7500.00
2022-09-06T10:56:21.949Z,3736.00
2022-09-06T10:58:21.764Z,4324.00
2022-09-06T10:59:37.845Z,4284.00
2022-09-06T11:02:21.398Z,3048.00
2022-09-06T11:06:22.487Z,5608.00
2022-09-06T11:07:20.973Z,4600.00
2022-09-06T11:15:20.377Z,3084.00
2022-09-06T11:16:20.375Z,3060.00
2022-09-06T11:17:20.985Z,3388.00
2022-09-06T11:18:20.173Z,4848.00
2022-09-06T11:21:19.962Z,5056.00
2022-09-06T11:22:19.894Z,4332.00
2022-09-06T11:23:19.826Z,3484.00
2022-09-06T11:24:19.754Z,3388.00
2022-09-06T11:25:19.688Z,3304.00
2022-09-06T11:26:19.616Z,3504.00
2022-09-06T11:27:19.546Z,3792.00
2022-09-06T11:28:19.476Z,3972.00
2022-09-06T11:29:19.410Z,6492.00
2022-09-06T11:30:19.344Z,4740.00
2022-09-06T11:32:19.200Z,25792.00
2022-09-06T11:33:19.132Z,26624.00
2022-09-06T11:34:19.062Z,21184.00
2022-09-06T11:35:18.996Z,27648.00
2022-09-06T11:36:18.926Z,31040.00
2022-09-06T11:37:18.858Z,34016.00
2022-09-06T11:38:18.822Z,45568.00
2022-09-06T11:39:18.898Z,27328.00
2022-09-06T11:41:51.182Z,12100.00
2022-09-06T11:42:51.150Z,33120.00
2022-09-06T11:43:51.082Z,60128.00
2022-09-06T11:45:50.916Z,32320.00
2022-09-06T11:46:50.940Z,51904.00
2022-09-06T11:49:50.677Z,34240.00
2022-09-06T11:50:50.926Z,39520.00
2022-09-06T11:53:50.386Z,79712.00
2022-09-06T11:54:50.324Z,79968.00
2022-09-06T11:55:50.255Z,80736.00
2022-09-06T11:56:50.194Z,80640.00
2022-09-06T11:57:50.125Z,80544.00
2022-09-06T11:58:50.074Z,81312.00
2022-09-06T11:59:50.002Z,81408.00
2022-09-06T12:00:49.940Z,81504.00
2022-09-06T12:01:49.876Z,81184.00
2022-09-06T12:04:06.760Z,81120.00
2022-09-06T12:04:49.893Z,80960.00
2022-09-06T12:07:49.512Z,80128.00
2022-09-06T12:08:49.454Z,80384.00
2022-09-06T12:10:32.635Z,79264.00
2022-09-06T12:11:31.854Z,79360.00
2022-09-06T12:12:32.110Z,79072.00
2022-09-06T12:17:44.631Z,76288.00
2022-09-06T12:22:58.698Z,73568.00
2022-09-06T12:23:58.401Z,73696.00
2022-09-06T12:25:59.690Z,72288.00
2022-09-06T12:26:56.141Z,72544.00
2022-09-06T12:27:55.740Z,71552.00
2022-09-06T12:30:08.770Z,71552.00
2022-09-06T12:31:56.220Z,70016.00
2022-09-06T12:33:38.659Z,68608.00
2022-09-06T12:34:38.600Z,68448.00
2022-09-06T12:37:11.896Z,66656.00
2022-09-06T12:37:38.426Z,65440.00
2022-09-06T12:38:38.369Z,65312.00
2022-09-06T12:39:38.776Z,64864.00
2022-09-06T12:40:38.254Z,64416.00
2022-09-06T12:41:42.943Z,63136.00
2022-09-06T12:42:38.142Z,62976.00
2022-09-06T12:43:38.083Z,62816.00
2022-09-06T12:44:38.025Z,62464.00
2022-09-06T12:45:37.969Z,62400.00
2022-09-06T12:46:37.990Z,61408.00
2022-09-06T12:47:37.852Z,60864.00
2022-09-06T12:48:37.798Z,60384.00
2022-09-06T12:49:37.741Z,60544.00
2022-09-06T12:50:37.887Z,60352.00
2022-09-06T12:51:37.626Z,60192.00
2022-09-06T12:52:37.571Z,60544.00
2022-09-06T12:53:37.515Z,59072.00
2022-09-06T12:54:37.458Z,56192.00
2022-09-06T12:55:37.402Z,54464.00
2022-09-06T12:56:37.343Z,53472.00
2022-09-06T12:57:37.337Z,52352.00
2022-09-06T12:58:37.251Z,51904.00
2022-09-06T12:59:37.176Z,51200.00
2022-09-06T13:00:37.224Z,50656.00
2022-09-06T13:01:37.283Z,50176.00
2022-09-06T13:02:37.170Z,49632.00
2022-09-06T13:03:36.948Z,48928.00
2022-09-06T13:04:36.891Z,48384.00
2022-09-06T13:28:40.883Z,47168.00
2022-09-06T13:29:40.826Z,47008.00
2022-09-06T13:30:40.773Z,8924.00
2022-09-06T13:31:40.779Z,7828.00
2022-09-06T13:33:40.605Z,51936.00
2022-09-06T13:34:40.549Z,52192.00
2022-09-06T13:35:40.493Z,52672.00
2022-09-06T13:36:40.434Z,51008.00
2022-09-06T13:37:40.380Z,49568.00
2022-09-06T13:38:40.322Z,50080.00
2022-09-06T13:39:40.372Z,50016.00
2022-09-06T13:41:06.476Z,48672.00
2022-09-06T13:41:40.156Z,47136.00
2022-09-06T13:42:40.100Z,45472.00
2022-09-06T13:43:40.042Z,44640.00
2022-09-06T13:44:39.985Z,44576.00
2022-09-06T13:45:39.931Z,46048.00
2022-09-06T13:46:39.970Z,47424.00
2022-09-06T13:47:39.819Z,31584.00
2022-09-06T13:48:40.298Z,38848.00
2022-09-06T13:49:39.707Z,43488.00
2022-09-06T13:50:39.654Z,32192.00
2022-09-06T13:51:39.645Z,28192.00
2022-09-06T13:52:39.540Z,45344.00
2022-09-06T13:53:39.488Z,53120.00
2022-09-06T13:54:39.428Z,54336.00
2022-09-06T13:55:39.373Z,51328.00
2022-09-06T13:56:39.326Z,53376.00
2022-09-06T13:57:39.258Z,57888.00
2022-09-06T13:58:39.203Z,55776.00
2022-09-06T13:59:39.147Z,53408.00
2022-09-06T14:00:39.091Z,54176.00
2022-09-06T14:01:39.099Z,55744.00
2022-09-06T14:02:39.010Z,57952.00
2022-09-06T14:03:38.920Z,58432.00
2022-09-06T14:04:38.862Z,58656.00
2022-09-06T14:05:38.809Z,60576.00
2022-09-06T14:06:38.750Z,63040.00
2022-09-06T14:07:38.693Z,64576.00
2022-09-06T14:09:05.413Z,64736.00
2022-09-06T14:09:38.582Z,64832.00
2022-09-06T14:10:38.526Z,66048.00
2022-09-06T14:11:38.469Z,67296.00
2022-09-06T14:12:38.413Z,66208.00
2022-09-06T14:13:38.357Z,64448.00
2022-09-06T14:14:38.301Z,65504.00
2022-09-06T14:15:38.289Z,65056.00
2022-09-06T14:16:38.188Z,65312.00
2022-09-06T14:17:38.133Z,63488.00
2022-09-06T14:18:38.077Z,59648.00
2022-09-06T14:19:38.021Z,56960.00
2022-09-06T14:20:37.965Z,55936.00
2022-09-06T14:21:37.911Z,55936.00
2022-09-06T14:22:37.852Z,52288.00
2022-09-06T14:23:37.795Z,49440.00
2022-09-06T14:24:37.736Z,45056.00
2022-09-06T14:25:37.685Z,41568.00
2022-09-06T14:26:37.625Z,38592.00
2022-09-06T14:27:37.568Z,36800.00
2022-09-06T14:28:37.512Z,36256.00
2022-09-06T14:29:37.457Z,35648.00
2022-09-06T14:30:37.467Z,34272.00
2022-09-06T14:31:37.342Z,33568.00
2022-09-06T14:32:37.286Z,33024.00
2022-09-06T14:33:37.232Z,32576.00
2022-09-06T14:34:37.174Z,31616.00
2022-09-06T14:35:37.119Z,30976.00
2022-09-06T14:36:37.061Z,30176.00
2022-09-06T14:37:37.019Z,29248.00
2022-09-06T14:38:36.947Z,28128.00
2022-09-06T14:39:36.987Z,27392.00
2022-09-06T14:40:39.454Z,27168.00
2022-09-06T14:41:36.779Z,26976.00
2022-09-06T14:42:36.720Z,26496.00
2022-09-06T14:43:36.664Z,26048.00
2022-09-06T14:44:36.605Z,25504.00
2022-09-06T14:45:36.552Z,25024.00
2022-09-06T14:46:36.599Z,24704.00
2022-09-06T14:47:36.436Z,24512.00
2022-09-06T14:48:39.168Z,24224.00
2022-09-06T14:49:36.323Z,23872.00
2022-09-06T14:50:36.264Z,23584.00
2022-09-06T14:52:36.395Z,23296.00
2022-09-06T14:53:40.709Z,23104.00
2022-09-06T14:54:36.076Z,23040.00
2022-09-06T14:56:37.482Z,22656.00
2022-09-06T14:57:35.863Z,22400.00
2022-09-06T14:58:35.805Z,22272.00
2022-09-06T14:59:35.751Z,22016.00
2022-09-06T15:00:35.690Z,21920.00
2022-09-06T15:01:38.351Z,21728.00
2022-09-06T15:02:35.677Z,21472.00
2022-09-06T15:03:35.519Z,21248.00
2022-09-06T15:04:35.465Z,21184.00
2022-09-06T15:05:35.404Z,21056.00
2022-09-06T15:06:35.347Z,21024.00
2022-09-06T15:07:35.288Z,20768.00
2022-09-06T15:08:35.234Z,20384.00
2022-09-06T15:09:35.176Z,20320.00
2022-09-06T15:10:35.120Z,20192.00
2022-09-06T15:11:35.060Z,20096.00
2022-09-06T15:12:35.003Z,20096.00
2022-09-06T15:13:34.944Z,19872.00
2022-09-06T15:14:34.889Z,19584.00
2022-09-06T15:15:34.932Z,19424.00
2022-09-06T15:16:34.774Z,19328.00
2022-09-06T15:17:34.751Z,19200.00
2022-09-06T15:18:34.700Z,19136.00
2022-09-06T15:20:34.678Z,19104.00
2022-09-06T15:21:34.520Z,19040.00
2022-09-06T15:23:34.408Z,18688.00
2022-09-06T15:25:34.405Z,18368.00
2022-09-06T15:27:21.702Z,17920.00
2022-09-06T15:28:21.642Z,17728.00
2022-09-06T15:29:21.586Z,17600.00
2022-09-06T15:30:21.527Z,17504.00
2022-09-06T15:31:21.720Z,17472.00
2022-09-06T15:32:21.411Z,17280.00
2022-09-06T15:33:21.353Z,16992.00
2022-09-06T15:34:21.546Z,16768.00
2022-09-06T15:35:21.239Z,16608.00
2022-09-06T15:36:22.593Z,16544.00
2022-09-06T15:37:21.121Z,16384.00
2022-09-06T15:38:21.104Z,16224.00
2022-09-06T15:39:21.004Z,16128.00
2022-09-06T15:40:21.551Z,16000.00
2022-09-06T15:41:23.772Z,15904.00
2022-09-06T15:42:21.030Z,15840.00
2022-09-06T15:43:20.778Z,15680.00
2022-09-06T15:44:20.713Z,15616.00
2022-09-06T15:45:20.651Z,15488.00
2022-09-06T15:46:20.652Z,15424.00
2022-09-06T15:47:20.533Z,15296.00
2022-09-06T15:48:20.476Z,15232.00
2022-09-06T15:49:25.595Z,15072.00
2022-09-06T15:50:40.568Z,14976.00
2022-09-06T15:51:20.300Z,14912.00
2022-09-06T15:52:20.240Z,14880.00
2022-09-06T15:53:20.179Z,14976.00
2022-09-06T15:54:20.121Z,15040.00
2022-09-06T15:55:20.061Z,14784.00
2022-09-06T15:56:20.003Z,14720.00
2022-09-06T15:57:19.941Z,14336.00
2022-09-06T15:58:19.884Z,14368.00
2022-09-06T15:59:19.824Z,14112.00
2022-09-06T16:00:19.797Z,13760.00
2022-09-06T16:01:19.761Z,13280.00
2022-09-06T16:02:19.710Z,13248.00
2022-09-06T16:03:19.583Z,13440.00
2022-09-06T16:04:19.566Z,13024.00
2022-09-06T16:05:19.621Z,13728.00
2022-09-06T16:07:19.347Z,13312.00
2022-09-06T16:08:19.587Z,13312.00
2022-09-06T16:09:19.226Z,13184.00
2022-09-06T16:10:19.170Z,9376.00
2022-09-06T16:11:19.106Z,3720.00
2022-09-06T16:12:19.045Z,3036.00
2022-09-06T16:13:18.985Z,3016.00
2022-09-06T16:14:18.926Z,3124.00
2022-09-06T16:15:18.864Z,3132.00
2022-09-06T16:16:18.872Z,3076.00
2022-09-06T16:18:18.681Z,2844.00
2022-09-06T16:19:18.619Z,2760.00
2022-09-06T16:20:18.555Z,3188.00
2022-09-06T16:21:18.492Z,5812.00
2022-09-06T16:22:18.428Z,4664.00
2022-09-06T16:24:10.869Z,3580.00
2022-09-06T16:25:12.123Z,3512.00
2022-09-06T16:26:10.744Z,3412.00
2022-09-06T16:27:10.690Z,3236.00